Terminal Aerodrome Forecast
Issued by NWS Amarillo, TX

Current Version | Previous Version | Text Only | Print | Product List | Glossary Off
Versions: 1 2 3 4 5 6 7 8 9 10 11 12 13 14 15

000
FTUS44 KAMA 291900 AAA
TAFAMA
TAF AMD
KAMA 291940Z 2920/3018 02018KT P6SM OVC090
     FM300100 09007KT P6SM OVC080
     FM301600 17008KT P6SM SCT010 OVC030=

USA.gov is the U.S. government's official web portal to all federal, state and local government web resources and services.